Map

Track Data

SID SEASON NUMBER BASIN SUBBASIN NAME ISO_TIME NATURE LAT LON WMO_WIND WMO_PRES WMO_AGENCY TRACK_TYPE DIST2LAND LANDFALL IFLAG USA_AGENCY USA_ATCF_ID USA_LAT USA_LON USA_RECORD USA_STATUS USA_WIND USA_PRES USA_SSHS USA_R34_NE USA_R34_SE USA_R34_SW USA_R34_NW USA_R50_NE USA_R50_SE USA_R50_SW USA_R50_NW USA_R64_NE USA_R64_SE USA_R64_SW USA_R64_NW USA_POCI USA_ROCI USA_RMW USA_EYE TOKYO_LAT TOKYO_LON TOKYO_GRADE TOKYO_WIND TOKYO_PRES TOKYO_R50_DIR TOKYO_R50_LONG TOKYO_R50_SHORT TOKYO_R30_DIR TOKYO_R30_LONG TOKYO_R30_SHORT TOKYO_LAND CMA_LAT CMA_LON CMA_CAT CMA_WIND CMA_PRES HKO_LAT HKO_LON HKO_CAT HKO_WIND HKO_PRES NEWDELHI_LAT NEWDELHI_LON NEWDELHI_GRADE NEWDELHI_WIND NEWDELHI_PRES NEWDELHI_CI NEWDELHI_DP NEWDELHI_POCI REUNION_LAT REUNION_LON REUNION_TYPE REUNION_WIND REUNION_PRES REUNION_TNUM REUNION_CI REUNION_RMW REUNION_R34_NE REUNION_R34_SE REUNION_R34_SW REUNION_R34_NW REUNION_R50_NE REUNION_R50_SE REUNION_R50_SW REUNION_R50_NW REUNION_R64_NE REUNION_R64_SE REUNION_R64_SW REUNION_R64_NW BOM_LAT BOM_LON BOM_TYPE BOM_WIND BOM_PRES BOM_TNUM BOM_CI BOM_RMW BOM_R34_NE BOM_R34_SE BOM_R34_SW BOM_R34_NW BOM_R50_NE BOM_R50_SE BOM_R50_SW BOM_R50_NW BOM_R64_NE BOM_R64_SE BOM_R64_SW BOM_R64_NW BOM_ROCI BOM_POCI BOM_EYE BOM_POS_METHOD BOM_PRES_METHOD NADI_LAT NADI_LON NADI_CAT NADI_WIND NADI_PRES WELLINGTON_LAT WELLINGTON_LON WELLINGTON_WIND WELLINGTON_PRES DS824_LAT DS824_LON DS824_STAGE DS824_WIND DS824_PRES TD9636_LAT TD9636_LON TD9636_STAGE TD9636_WIND TD9636_PRES TD9635_LAT TD9635_LON TD9635_WIND TD9635_PRES TD9635_ROCI NEUMANN_LAT NEUMANN_LON NEUMANN_CLASS NEUMANN_WIND NEUMANN_PRES MLC_LAT MLC_LON MLC_CLASS MLC_WIND MLC_PRES USA_GUST BOM_GUST BOM_GUST_PER REUNION_GUST REUNION_GUST_PER USA_SEAHGT USA_SEARAD_NE USA_SEARAD_SE USA_SEARAD_SW USA_SEARAD_NW STORM_SPEED STORM_DIR
1876052S14066 1876 6 SI MM NOT_NAMED 1876-02-21 06:00:00 NR -14.4000 66.4000 reunion main 1122 1089 _____O________ -1 -14.4000 66.4000 99 9.90000 7 248
1876052S14066 1876 6 SI MM NOT_NAMED 1876-02-21 09:00:00 NR -14.5333 66.0655 main 1089 1041 _____P________ -1 -14.5333 66.0655 99 7 248
1876052S14066 1876 6 SI MM NOT_NAMED 1876-02-21 12:00:00 NR -14.6678 65.7292 main 1041 1009 _____P________ -1 -14.6678 65.7292 99 7 247
1876052S14066 1876 6 SI MM NOT_NAMED 1876-02-21 15:00:00 NR -14.8055 65.3899 main 1009 993 _____P________ -1 -14.8055 65.3899 99 5 243
1876052S14066 1876 6 SI MM NOT_NAMED 1876-02-21 18:00:00 NR -14.8983 65.2569 main 993 961 _____P____O___ -1 -14.9479 65.0462 99 -14.7000 66.1000 7 5 239
1876052S14066 1876 6 SI MM NOT_NAMED 1876-02-21 21:00:00 NR -15.0552 64.9567 main 954 913 _____P____P___ -1 -15.0968 64.6967 99 -14.9719 65.4766 7 8 242
1876052S14066 1876 6 SI MM NOT_NAMED 1876-02-22 00:00:00 NR -15.2455 64.5680 main 913 866 _____P____P___ -1 -15.2540 64.3402 99 -15.2343 64.8717 7 9 243
1876052S14066 1876 6 SI MM NOT_NAMED 1876-02-22 03:00:00 NR -15.4503 64.1405 main 850 810 _____P____P___ -1 -15.4211 63.9751 99 -15.4795 64.3060 7 9 244
1876052S14066 1876 6 SI MM NOT_NAMED 1876-02-22 06:00:00 NR -15.6500 63.7000 reunion main 810 763 _____O____O___ -1 -15.6000 63.6000 99 9.90000 -15.7000 63.8000 7 9 244
1876052S14066 1876 6 SI MM NOT_NAMED 1876-02-22 09:00:00 NR -15.8429 63.2920 main 763 715 _____P____P___ -1 -15.7923 63.2157 99 -15.8934 63.3683 7 8 243
1876052S14066 1876 6 SI MM NOT_NAMED 1876-02-22 12:00:00 NR -16.0384 62.9166 main 715 677 _____P____P___ -1 -16.0002 62.8317 99 -16.0767 63.0016 7 8 240
1876052S14066 1876 6 SI MM NOT_NAMED 1876-02-22 15:00:00 NR -16.2487 62.5720 main 677 630 _____P____P___ -1 -16.2257 62.4599 99 -16.2717 62.6841 7 8 235
1876052S14066 1876 6 SI MM NOT_NAMED 1876-02-22 18:00:00 NR -16.4856 62.2560 main 630 592 _____P____O___ -1 -16.4712 62.1121 99 -16.5000 62.4000 7 8 231
1876052S14066 1876 6 SI MM NOT_NAMED 1876-02-22 21:00:00 NR -16.7457 61.9425 main 583 545 _____P____P___ -1 -16.7389 61.8002 99 -16.7525 62.0848 7 8 225
1876052S14066 1876 6 SI MM NOT_NAMED 1876-02-23 00:00:00 NR -17.0382 61.6694 main 545 501 _____P____P___ -1 -17.0313 61.5361 99 -17.0450 61.8028 7 8 217
1876052S14066 1876 6 SI MM NOT_NAMED 1876-02-23 03:00:00 NR -17.3705 61.4507 main 501 464 _____P____P___ -1 -17.3509 61.3320 99 -17.3900 61.5693 7 8 206
1876052S14066 1876 6 SI MM NOT_NAMED 1876-02-23 06:00:00 NR -17.7500 61.3000 reunion main 464 424 _____O____O___ -1 -17.7000 61.2000 99 9.90000 -17.8000 61.4000 7 9 196
1876052S14066 1876 6 SI MM NOT_NAMED 1876-02-23 09:00:00 NR -18.2176 61.2002 main 424 398 _____P____P___ -1 -18.1136 61.1426 99 -18.3215 61.2579 7 10 187
1876052S14066 1876 6 SI MM NOT_NAMED 1876-02-23 12:00:00 NR -18.7314 61.1706 main 398 376 _____P____P___ -1 -18.5634 61.1555 99 -18.8995 61.1856 7 10 0
1876052S14066 1876 6 SI MM NOT_NAMED 1876-02-23 15:00:00 NR -19.2572 61.2135 main 372 366 _____P____P___ -1 -19.0366 61.2316 99 -19.4777 61.1955 7 10 172
1876052S14066 1876 6 SI MM NOT_NAMED 1876-02-23 18:00:00 NR -19.7601 61.3317 main 369 369 _____P____O___ -1 -19.5202 61.3634 99 -20.0000 61.3000 7 10 163
1876052S14066 1876 6 SI MM NOT_NAMED 1876-02-23 21:00:00 NR -20.2017 61.5248 main 386 386 _____P____P___ -1 -20.0013 61.5438 99 -20.4021 61.5059 7 9 153
1876052S14066 1876 6 SI MM NOT_NAMED 1876-02-24 00:00:00 NR -20.6037 61.7834 main 418 418 _____P____P___ -1 -20.4670 61.7651 99 -20.7403 61.8017 7 9 146
1876052S14066 1876 6 SI MM NOT_NAMED 1876-02-24 03:00:00 NR -20.9688 62.0833 main 454 454 _____P____P___ -1 -20.9042 62.0198 99 -21.0334 62.1468 7 9 140
1876052S14066 1876 6 SI MM NOT_NAMED 1876-02-24 06:00:00 NR -21.3000 62.4000 reunion main 490 490 _____O____O___ -1 -21.3000 62.3000 99 9.90000 -21.3000 62.5000 7 9 138
1876052S14066 1876 6 SI MM NOT_NAMED 1876-02-24 09:00:00 NR -21.6040 62.6870 main 529 529 _____P____P___ -1 -21.6287 62.5816 99 -21.5794 62.7924 7 8 136
1876052S14066 1876 6 SI MM NOT_NAMED 1876-02-24 12:00:00 NR -21.8794 62.9925 main 568 568 _____P____P___ -1 -21.9217 62.8993 99 -21.8371 63.0856 7 8 132
1876052S14066 1876 6 SI MM NOT_NAMED 1876-02-24 15:00:00 NR -22.1291 63.3146 main 604 604 _____P____P___ -1 -22.1820 63.2432 99 -22.0762 63.3861 7 8 128
1876052S14066 1876 6 SI MM NOT_NAMED 1876-02-24 18:00:00 NR -22.3563 63.6516 main 654 654 _____P____O___ -1 -22.4125 63.6032 99 -22.3000 63.7000 7 8 124
1876052S14066 1876 6 SI MM NOT_NAMED 1876-02-24 21:00:00 NR -22.5639 64.0005 main 691 691 _____P____P___ -1 -22.6164 63.9691 99 -22.5114 64.0320 7 8 122
1876052S14066 1876 6 SI MM NOT_NAMED 1876-02-25 00:00:00 NR -22.7610 64.3515 main 737 737 _____P____P___ -1 -22.7968 64.3307 99 -22.7133 64.3791 7 7 120
1876052S14066 1876 6 SI MM NOT_NAMED 1876-02-25 03:00:00 NR -22.9408 64.6974 main 770 770 _____P____P___ -1 -22.9569 64.6778 99 -22.9085 64.7367 7 7 119
1876052S14066 1876 6 SI MM NOT_NAMED 1876-02-25 06:00:00 NR -23.1000 65.0200 reunion main 806 806 _____O____O___ -1 -23.1000 65.0000 99 9.90000 -23.1000 65.1000 7 6 118
1876052S14066 1876 6 SI MM NOT_NAMED 1876-02-25 09:00:00 NR -23.2293 65.2896 main 839 839 _____P________ -1 -23.2293 65.2896 99 7 5 117
1876052S14066 1876 6 SI MM NOT_NAMED 1876-02-25 12:00:00 NR -23.3468 65.5483 main 862 862 _____P________ -1 -23.3468 65.5483 99 7 5 117
1876052S14066 1876 6 SI MM NOT_NAMED 1876-02-25 15:00:00 NR -23.4542 65.7807 main 899 899 _____P________ -1 -23.4542 65.7807 99 7 5 117
1876052S14066 1876 6 SI MM NOT_NAMED 1876-02-25 18:00:00 NR -23.5534 65.9909 main 922 922 _____P________ -1 -23.5534 65.9909 99 4 118
1876052S14066 1876 6 SI MM NOT_NAMED 1876-02-25 21:00:00 NR -23.6459 66.1836 main 941 941 _____P________ -1 -23.6459 66.1836 99 4 118
1876052S14066 1876 6 SI MM NOT_NAMED 1876-02-26 00:00:00 NR -23.7334 66.3630 main 964 964 _____P________ -1 -23.7334 66.3630 99 4 118
1876052S14066 1876 6 SI MM NOT_NAMED 1876-02-26 03:00:00 NR -23.8176 66.5336 main 977 977 _____P________ -1 -23.8176 66.5336 99 4 118
1876052S14066 1876 6 SI MM NOT_NAMED 1876-02-26 06:00:00 NR -23.9000 66.7000 reunion main 1000 _____O________ -1 -23.9000 66.7000 99 9.90000 3 119

About IBTrACS Database

This database is a web-friendly format of International Best Track Archive for Climate Stewardship (IBTrACS), a global best track data archive curated by NOAA dating back to 1842.

Updated: 2021-10-21